EKVG

Vagar Airport

Vagar, Denmark
METAR EKVG 161720Z AUTO 23010KT 9999NDV BKN003/// 11/11 Q0994 RMK BKN010/// WIND 850FT 28010G22KT 240V330
Observed Flight Rules
Aug-16 @ 17:20 UTC (15 minutes ago)
Wind Clouds
230° at 10 knots
  • Broken at 300' AGL
Temperatures Readings
Current 11°C / 52°F
Dewpoint 11°C / 52°F
Humidity 100%
Altimeter 29.35" Hg
Pressure 994 hPa
Elevation 85
METAR EKVG 161720Z AUTO 23010KT 9999NDV BKN003/// 11/11 Q0994 RMK BKN010/// WIND 850FT 28010G22KT 240V330
Observed Flight Rules
Aug-16 @ 17:20 UTC
(15 minutes ago)
Wind
230° at 10 knots
Clouds
  • Broken at 300' AGL
Temperature Dewpoint
11°C / 52°F 11°C / 52°F
Humidity Altimeter Pressure
100% 29.35" Hg 994 hPa